Ozuki Aero, Japan

1:04 AM JST on December 23, 2014 (GMT +0900)
Kitakyushu | Change Station
CLOSE
Current Station
Airport
Location: Kitakyushu,
Elevation: 30 ft
Nearby Weather Stations

Elev 30 ft 33.85 °N, 131.04 °E | Updated 1 hour ago

Mostly Cloudy
Mostly Cloudy
46 °F
Feels Like 40 °F
N
16
Wind Variable Wind from West

Today
High -- | Low -- °F
--% Chance of Precip.
Yesterday
High -- | Low -- °F
Precip. -- in
7:18 AM 5:11 PM
New Moon, 0% visible
Pressure 30.21 in
Visibility 6.2 miles
Clouds Few 2500 ft
Mostly Cloudy 4500 ft
Windchill 40 °F
Dew Point 30 °F
Humidity 53%
Rainfall 0.00 in
Snow Depth Not available.
UV 0 out of 12
Pollen Not available.
Air Quality Not available.
Flu Activity Not available.
METAR RJFR 221500Z 27014KT 9999 FEW025 BKN045 08/M01 Q1023

More Conditions Fewer Conditions

Pressure 30.21 in
Visibility 6.2 miles
Clouds Few 2500 ft
Mostly Cloudy 4500 ft
Windchill 40 °F
Dew Point 30 °F
Humidity 53%
Rainfall 0.00 in
Snow Depth Not available.
UV 0 out of 12
Pollen Not available.
Air Quality Not available.
Flu Activity Not available.
METAR RJFR 221500Z 27014KT 9999 FEW025 BKN045 08/M01 Q1023

More Conditions Fewer Conditions

10-Day Weather Forecast

Almanac

Astronomy

Dec. 23, 2014 Rise Set
Actual Time
Civil Twilight
Nautical Twilight
Astronomical Twilight
Moon
Length of Visible Light
Length of Day
Tomorrow will be .
, % of the Moon is Illuminated

Today's Extremes

Country Highs Country Lows

Community

WunderPhotos

Upload Photos

1,779,630 photos uploaded!

WunderBlogs® & News

Nearby

Air Quality

  Air Quality AQ Index Pollutant
Not available.

Snow Depth

Station Depth Elevation

Earthquake Activity

City Distance Mag. Time & Date
Minimum magnitude displayed is 2.5.

Coastal Water Temperatures

Place Temperature

Nearby Weather Stations